Terminal Aerodrome Forecast
Issued by NWS

Home | Current Version | Previous Version | Text Only | Print | Product List | Glossary On
Versions: 1 2 3 4 5 6 7 8 9 10 11 12 13 14
000
FTUS45 KABQ 280521
TAFGUP
TAF
KGUP 280521Z 2806/2906 VRB03KT P6SM BKN080
     FM281600 24005KT P6SM VCSH BKN070 BKN120
     FM281900 28006KT P6SM VCTS OVC070CB
     FM282300 32007KT P6SM VCSH BKN050
     FM290200 05007KT P6SM BKN090=

USA.gov is the U.S. government's official web portal to all federal, state and local government web resources and services.